Time;durP1;ratioP1;P1;durP2;ratioP2;P2;SDS_P1;SDS_P2;PMS_P1;PMS_P2;Temp;Humidity;BMP_temperature;BMP_pressure;BME280_temperature;BME280_humidity;BME280_pressure;Samples;Min_cycle;Max_cycle;Signal;HPM_P1;HPM_P2
2022/05/03 00:00:03;;;;;;;9.93;6.45;;;;;;;15.91;53.60;100453.25;4115458;28;20130;-59
2022/05/03 00:02:17;;;;;;;13.63;8.80;;;;;;;15.94;53.20;100450.59;4111557;28;20486;-60
2022/05/03 00:04:29;;;;;;;10.60;7.90;;;;;;;15.94;53.09;100442.75;4112353;28;20174;-59
2022/05/03 00:06:45;;;;;;;9.70;7.50;;;;;;;15.92;53.47;100444.53;4116340;28;20073;-59
2022/05/03 00:09:01;;;;;;;8.98;6.00;;;;;;;15.88;53.64;100445.41;4112071;28;20061;-60
2022/05/03 00:11:10;;;;;;;12.30;7.93;;;;;;;15.87;53.18;100441.94;4114898;28;20042;-59
2022/05/03 00:13:19;;;;;;;9.50;7.32;;;;;;;15.94;53.38;100436.63;4114767;28;20043;-60
2022/05/03 00:15:23;;;;;;;8.73;6.65;;;;;;;15.94;53.55;100447.97;4113302;28;20046;-59
2022/05/03 00:17:26;;;;;;;10.15;6.25;;;;;;;15.93;54.35;100445.38;4114681;28;20129;-59
2022/05/03 00:19:31;;;;;;;10.50;6.43;;;;;;;15.90;56.44;100448.03;4114272;28;20043;-59
2022/05/03 00:21:35;;;;;;;9.95;6.60;;;;;;;15.83;56.07;100441.97;4110913;28;20043;-59
2022/05/03 00:23:38;;;;;;;9.43;7.30;;;;;;;15.77;54.72;100441.97;4109199;28;20047;-59
2022/05/03 00:25:43;;;;;;;10.93;6.68;;;;;;;15.76;54.74;100435.88;4112980;28;20508;-59
2022/05/03 00:27:46;;;;;;;;;;;;;;;15.57;55.61;100448.22;4111602;28;20035;-59
2022/05/03 00:29:49;;;;;;;9.20;6.25;;;;;;;15.65;55.97;100430.72;4113723;28;20021;-60
2022/05/03 00:31:53;;;;;;;9.20;6.30;;;;;;;15.67;55.63;100436.81;4113638;28;20043;-60
2022/05/03 00:33:57;;;;;;;9.90;7.35;;;;;;;15.69;55.21;100432.41;4114574;28;20125;-59
2022/05/03 00:36:00;;;;;;;10.55;8.27;;;;;;;15.67;54.89;100428.09;4111526;28;20043;-59
2022/05/03 00:38:03;;;;;;;12.57;7.70;;;;;;;15.69;54.64;100426.31;4114492;28;20059;-59
2022/05/03 00:40:08;;;;;;;12.25;7.18;;;;;;;15.73;55.01;100427.19;4112687;28;20119;-59
2022/05/03 00:42:19;;;;;;;10.27;8.05;;;;;;;15.76;53.32;100422.75;4112419;28;20053;-59
2022/05/03 00:46:59;;;;;;;13.82;8.73;;;;;;;15.82;53.31;100421.88;4114632;28;20042;-59
2022/05/03 00:49:22;;;;;;;12.40;7.05;;;;;;;15.76;54.03;100414.03;4112538;28;20058;-59
2022/05/03 00:51:29;;;;;;;9.20;6.72;;;;;;;15.73;53.96;100419.31;4108305;28;20089;-59
2022/05/03 00:53:34;;;;;;;10.77;8.10;;;;;;;15.75;53.90;100417.53;4114241;28;20122;-59
2022/05/03 00:56:18;;;;;;;12.48;8.60;;;;;;;15.71;54.18;100409.69;4115210;28;20034;-60
2022/05/03 00:58:38;;;;;;;10.98;7.35;;;;;;;15.66;54.15;100415.84;4106528;28;20043;-59
2022/05/03 01:00:50;;;;;;;11.93;7.93;;;;;;;15.67;54.06;100421.09;4113522;28;20365;-60
2022/05/03 01:03:07;;;;;;;9.20;7.28;;;;;;;15.72;53.18;100415.81;4112541;28;20058;-60
2022/05/03 01:05:20;;;;;;;11.85;7.22;;;;;;;15.75;52.92;100418.41;4113515;28;20073;-59
2022/05/03 01:07:28;;;;;;;13.93;9.57;;;;;;;15.73;53.77;100421.94;4113023;28;20043;-59
2022/05/03 01:09:39;;;;;;;10.18;6.40;;;;;;;15.70;53.48;100418.44;4124669;28;20100;-59
2022/05/03 01:11:47;;;;;;;8.80;5.78;;;;;;;15.66;55.64;100421.94;4113584;28;20414;-60
2022/05/03 01:14:01;;;;;;;10.07;6.68;;;;;;;15.61;56.62;100418.50;4113245;28;20043;-59
2022/05/03 01:16:11;;;;;;;7.65;5.80;;;;;;;15.54;56.20;100417.69;4112836;28;20047;-59
2022/05/03 01:18:25;;;;;;;8.40;6.55;;;;;;;15.48;56.57;100414.25;4128288;28;20498;-59
2022/05/03 01:20:36;;;;;;;13.90;7.07;;;;;;;15.41;56.42;100415.16;4114460;28;20069;-60
2022/05/03 01:23:11;;;;;;;10.38;7.03;;;;;;;15.33;56.57;100415.19;4115607;28;20057;-59
2022/05/03 01:25:35;;;;;;;14.07;8.10;;;;;;;15.17;57.32;100417.91;4114568;28;20459;-60
2022/05/03 01:28:05;;;;;;;12.25;7.53;;;;;;;15.09;56.90;100414.44;4110794;28;20126;-60
2022/05/03 01:30:10;;;;;;;12.57;8.25;;;;;;;15.09;57.29;100418.84;4112115;28;20135;-59
2022/05/03 01:32:16;;;;;;;11.05;7.30;;;;;;;15.12;56.82;100417.06;4128670;28;20138;-59
2022/05/03 01:34:20;;;;;;;8.45;6.65;;;;;;;15.11;57.73;100414.44;4106180;28;20038;-59
2022/05/03 01:36:36;;;;;;;11.18;7.82;;;;;;;15.10;57.62;100417.94;4112976;28;20138;-60
2022/05/03 01:38:56;;;;;;;9.85;7.07;;;;;;;15.09;58.38;100413.59;4108500;28;20043;-59
2022/05/03 01:41:18;;;;;;;10.40;6.72;;;;;;;15.07;59.24;100412.72;4114358;28;20391;-59
2022/05/03 01:43:33;;;;;;;11.82;7.75;;;;;;;15.01;59.39;100417.13;4112575;28;20039;-59
2022/05/03 01:45:43;;;;;;;11.10;7.18;;;;;;;14.95;59.90;100405.78;4113307;28;20097;-59
2022/05/03 01:48:14;;;;;;;10.93;7.30;;;;;;;14.90;58.79;100408.44;4114623;28;20027;-59
2022/05/03 01:50:27;;;;;;;10.52;7.80;;;;;;;14.89;59.77;100414.53;4112802;28;20042;-59
2022/05/03 01:52:55;;;;;;;9.57;7.32;;;;;;;14.88;58.65;100406.69;4106549;28;20061;-59
2022/05/03 01:55:09;;;;;;;13.50;8.25;;;;;;;14.87;58.96;100413.69;4103283;28;20573;-59
2022/05/03 01:57:23;;;;;;;9.60;7.63;;;;;;;14.86;58.95;100411.09;4114472;28;20043;-59
2022/05/03 01:59:58;;;;;;;10.50;7.07;;;;;;;14.80;60.49;100418.06;4112308;28;20101;-59
2022/05/03 02:02:14;;;;;;;10.15;7.60;;;;;;;14.77;59.68;100414.59;4112051;28;20043;-59
2022/05/03 02:04:36;;;;;;;12.13;7.72;;;;;;;14.76;59.64;100415.47;4113192;28;20053;-59
2022/05/03 02:06:51;;;;;;;10.32;8.10;;;;;;;14.66;59.93;100414.66;4112539;28;21086;-59
2022/05/03 02:09:01;;;;;;;12.70;7.75;;;;;;;14.65;59.65;100405.06;4113652;28;20045;-59
2022/05/03 02:11:25;;;;;;;10.68;6.82;;;;;;;14.64;60.13;100412.00;4113677;28;20043;-59
2022/05/03 02:16:08;;;;;;;;;;;;;;;14.27;61.82;100406.00;4112823;28;20130;-59
2022/05/03 02:18:22;;;;;;;10.73;7.32;;;;;;;14.29;62.01;100406.84;4113754;28;20377;-59
2022/05/03 02:20:47;;;;;;;9.30;7.30;;;;;;;14.30;61.18;100408.59;4127954;28;20089;-59
2022/05/03 02:23:15;;;;;;;12.98;8.88;;;;;;;14.28;61.47;100411.22;4114199;28;20414;-59
2022/05/03 02:25:23;;;;;;;12.05;9.15;;;;;;;14.39;59.68;100415.56;4121661;28;20054;-59
2022/05/03 02:27:29;;;;;;;11.25;8.25;;;;;;;14.51;58.17;100410.28;4104296;28;20045;-59
2022/05/03 02:29:41;;;;;;;11.77;8.52;;;;;;;14.52;58.38;100413.78;4128787;28;20592;-59
2022/05/03 02:31:48;;;;;;;14.98;9.75;;;;;;;14.58;58.12;100412.00;4111657;28;20070;-59
2022/05/03 02:33:58;;;;;;;9.77;8.00;;;;;;;14.55;57.88;100414.63;4113932;28;20055;-59
2022/05/03 02:36:03;;;;;;;12.63;8.88;;;;;;;14.55;58.36;100411.16;4111653;28;20042;-59
2022/05/03 02:38:07;;;;;;;12.30;9.07;;;;;;;14.60;57.40;100409.38;4111877;28;20047;-59
2022/05/03 02:40:12;;;;;;;11.35;8.43;;;;;;;14.57;57.86;100409.41;4116302;28;20043;-59
2022/05/03 02:42:15;;;;;;;14.68;9.20;;;;;;;14.59;57.57;100412.91;4117995;28;20046;-59
2022/05/03 02:44:21;;;;;;;12.48;9.23;;;;;;;14.67;57.19;100411.13;4117064;28;20039;-59
2022/05/03 02:46:46;;;;;;;12.70;9.70;;;;;;;14.61;57.94;100411.13;4111913;28;20057;-59
2022/05/03 02:49:02;;;;;;;19.58;9.13;;;;;;;14.57;58.04;100412.91;4112543;28;20487;-59
2022/05/03 02:51:07;;;;;;;11.43;8.05;;;;;;;14.55;58.19;100414.63;4116353;28;20137;-59
2022/05/03 02:53:21;;;;;;;12.73;8.55;;;;;;;14.57;57.63;100419.84;4115222;28;20046;-59
2022/05/03 02:55:36;;;;;;;12.98;8.77;;;;;;;14.55;59.32;100412.03;4109583;28;20122;-59
2022/05/03 02:57:48;;;;;;;10.65;9.55;;;;;;;14.48;59.51;100415.53;4114931;28;20047;-59
2022/05/03 03:02:29;;;;;;;9.88;7.55;;;;;;;14.41;59.86;100416.41;4116726;28;20105;-59
2022/05/03 03:04:40;;;;;;;14.20;9.30;;;;;;;14.38;60.08;100409.44;4115836;28;20038;-59
2022/05/03 03:06:44;;;;;;;10.82;8.05;;;;;;;14.36;60.50;100420.81;4110405;28;20041;-59
2022/05/03 03:08:48;;;;;;;12.98;7.53;;;;;;;14.31;60.50;100415.59;4113278;28;20498;-59
2022/05/03 03:10:53;;;;;;;14.30;9.75;;;;;;;14.24;61.11;100422.56;4112485;28;20038;-59
2022/05/03 03:13:06;;;;;;;11.40;8.57;;;;;;;14.21;60.73;100413.84;4115451;28;20065;-59
2022/05/03 03:15:10;;;;;;;11.40;7.28;;;;;;;14.16;61.13;100411.22;4111878;28;20579;-59
2022/05/03 03:17:19;;;;;;;10.27;8.30;;;;;;;14.13;61.28;100421.69;4111813;28;20045;-59
2022/05/03 03:20:03;;;;;;;11.93;8.57;;;;;;;14.06;61.91;100422.56;4116514;28;20039;-59
2022/05/03 03:22:12;;;;;;;12.68;8.80;;;;;;;13.99;62.14;100423.44;4115607;28;20082;-59
2022/05/03 03:24:17;;;;;;;12.95;9.65;;;;;;;13.92;62.42;100418.22;4114497;28;20491;-59
2022/05/03 03:26:21;;;;;;;12.18;8.60;;;;;;;13.86;62.71;100420.84;4108940;28;20125;-59
2022/05/03 03:28:24;;;;;;;10.95;8.55;;;;;;;13.82;62.91;100429.53;4114977;28;20065;-59
2022/05/03 03:30:28;;;;;;;14.55;9.75;;;;;;;13.78;63.10;100422.56;4110902;28;20129;-59
2022/05/03 03:32:31;;;;;;;11.20;8.80;;;;;;;13.73;63.46;100424.31;4115917;28;20101;-59
2022/05/03 03:34:35;;;;;;;11.80;9.50;;;;;;;13.71;63.65;100420.81;4114483;28;20053;-59
2022/05/03 03:36:42;;;;;;;10.07;7.97;;;;;;;13.68;63.54;100426.06;4109054;28;20447;-59
2022/05/03 03:38:47;;;;;;;11.15;8.82;;;;;;;13.63;63.90;100417.34;4115990;28;20042;-59
2022/05/03 03:40:49;;;;;;;10.55;8.68;;;;;;;13.58;63.38;100431.28;4112206;28;20050;-59
2022/05/03 03:42:54;;;;;;;10.27;8.57;;;;;;;13.56;63.56;100426.91;4112869;28;20514;-59
2022/05/03 03:45:00;;;;;;;13.65;8.73;;;;;;;13.55;64.05;100425.16;4112267;28;20126;-59
2022/05/03 03:47:04;;;;;;;12.25;9.52;;;;;;;13.50;64.31;100424.28;4116123;28;20045;-59
2022/05/03 03:49:13;;;;;;;11.02;9.32;;;;;;;13.40;65.24;100432.13;4114740;28;20050;-59
2022/05/03 03:51:17;;;;;;;11.05;8.48;;;;;;;13.36;64.91;100432.09;4115177;28;20597;-59
2022/05/03 03:53:21;;;;;;;12.05;9.20;;;;;;;13.35;64.74;100433.84;4109914;28;20469;-59
2022/05/03 03:55:26;;;;;;;13.65;9.20;;;;;;;13.18;65.05;100436.34;4115626;28;20043;-59
2022/05/03 03:57:30;;;;;;;14.13;10.48;;;;;;;12.95;65.79;100427.59;4112377;28;20065;-59
2022/05/03 03:59:33;;;;;;;11.50;9.18;;;;;;;12.97;65.80;100436.31;4113073;28;20031;-59
2022/05/03 04:01:37;;;;;;;10.77;8.73;;;;;;;12.97;65.87;100437.16;4110165;28;20050;-58
2022/05/03 04:03:40;;;;;;;12.07;9.68;;;;;;;13.03;65.62;100441.53;4113521;28;20049;-59
2022/05/03 04:05:46;;;;;;;10.50;8.77;;;;;;;13.05;65.42;100434.56;4113417;28;20041;-59
2022/05/03 04:07:55;;;;;;;13.50;10.40;;;;;;;13.01;65.54;100432.81;4114094;28;20364;-59
2022/05/03 04:09:59;;;;;;;10.95;9.18;;;;;;;13.09;64.96;100436.34;4111369;28;20042;-59
2022/05/03 04:12:03;;;;;;;14.57;10.27;;;;;;;13.09;65.27;100441.56;4113889;28;20097;-60
2022/05/03 04:14:07;;;;;;;12.93;9.90;;;;;;;13.12;65.13;100441.56;4116226;28;20552;-60
2022/05/03 04:16:10;;;;;;;11.73;9.45;;;;;;;13.12;65.19;100441.56;4114689;28;20538;-59
2022/05/03 04:18:13;;;;;;;11.68;8.93;;;;;;;13.14;65.26;100445.06;4129952;28;20042;-59
2022/05/03 04:20:16;;;;;;;11.40;10.20;;;;;;;13.16;65.43;100445.94;4114779;28;20042;-59
2022/05/03 04:22:27;;;;;;;9.80;8.77;;;;;;;13.15;65.71;100446.78;4108791;28;20060;-59
2022/05/03 04:24:30;;;;;;;13.35;8.43;;;;;;;13.12;65.90;100448.53;4104008;28;20039;-59
2022/05/03 04:26:34;;;;;;;18.58;10.63;;;;;;;13.10;66.23;100443.31;4115558;28;20060;-59
2022/05/03 04:28:37;;;;;;;13.82;10.27;;;;;;;13.06;66.43;100446.78;4113158;28;20070;-60
2022/05/03 04:30:40;;;;;;;15.32;9.95;;;;;;;13.06;66.48;100446.78;4110463;28;20158;-59
2022/05/03 04:32:43;;;;;;;16.80;11.25;;;;;;;13.09;66.44;100452.00;4106300;28;20089;-59
2022/05/03 04:34:47;;;;;;;13.63;10.85;;;;;;;13.05;66.31;100452.84;4112786;28;20078;-61
2022/05/03 04:36:50;;;;;;;12.60;10.20;;;;;;;13.02;66.21;100455.44;4114805;28;20069;-62
2022/05/03 04:38:53;;;;;;;10.98;9.43;;;;;;;13.00;66.29;100454.59;4114287;28;20197;-61
2022/05/03 04:40:59;;;;;;;13.98;9.45;;;;;;;12.96;66.25;100460.66;4114348;28;20446;-60
2022/05/03 04:43:03;;;;;;;12.13;10.13;;;;;;;12.92;66.70;100455.41;4115186;28;20067;-61
2022/05/03 04:45:07;;;;;;;15.73;11.38;;;;;;;12.91;66.85;100460.63;4112690;28;20510;-60
2022/05/03 04:47:10;;;;;;;17.98;10.10;;;;;;;12.91;66.62;100458.88;4097717;28;20054;-60
2022/05/03 04:49:13;;;;;;;12.23;10.57;;;;;;;12.88;66.77;100453.66;4114422;28;20586;-61
2022/05/03 04:51:17;;;;;;;13.68;9.50;;;;;;;12.89;66.77;100463.25;4108000;28;20101;-61
2022/05/03 04:53:22;;;;;;;;;;;;;;;12.73;66.78;100464.91;4098262;28;20047;-61
2022/05/03 04:55:25;;;;;;;13.52;10.70;;;;;;;12.83;66.20;100465.78;4114169;28;20298;-61
2022/05/03 04:57:28;;;;;;;13.63;11.00;;;;;;;12.88;66.24;100461.47;4114866;28;20042;-60
2022/05/03 04:59:32;;;;;;;12.82;10.52;;;;;;;12.95;66.64;100471.94;4107259;28;20039;-60
2022/05/03 05:01:35;;;;;;;12.50;9.15;;;;;;;12.97;66.85;100470.22;4111506;28;20035;-60
2022/05/03 05:03:38;;;;;;;11.88;9.55;;;;;;;13.01;66.63;100469.34;4108174;28;20063;-61
2022/05/03 05:05:41;;;;;;;10.38;8.52;;;;;;;13.06;66.32;100465.03;4114233;28;20078;-60
2022/05/03 05:07:44;;;;;;;14.45;10.90;;;;;;;13.09;66.21;100473.75;4113302;28;20173;-60
2022/05/03 05:12:04;;;;;;;14.48;11.02;;;;;;;13.13;66.50;100476.34;4115474;28;20055;-60
2022/05/03 05:14:07;;;;;;;13.77;11.27;;;;;;;13.18;66.34;100467.69;4114750;28;20050;-60
2022/05/03 05:16:12;;;;;;;14.80;9.35;;;;;;;13.21;66.51;100477.28;4113737;28;20077;-61
2022/05/03 05:18:16;;;;;;;12.43;9.38;;;;;;;13.23;66.72;100479.03;4114965;28;20049;-61
2022/05/03 05:20:20;;;;;;;12.73;10.35;;;;;;;13.20;66.93;100476.41;4115145;28;20035;-61
2022/05/03 05:22:23;;;;;;;12.57;8.98;;;;;;;13.21;67.10;100475.53;4115526;28;20410;-61
2022/05/03 05:24:26;;;;;;;11.55;9.38;;;;;;;13.24;67.26;100477.28;4115502;28;20054;-61
2022/05/03 05:26:29;;;;;;;12.23;9.77;;;;;;;13.24;67.07;100483.41;4114453;28;20053;-61
2022/05/03 05:28:32;;;;;;;12.98;9.90;;;;;;;13.20;67.37;100480.75;4114341;28;20047;-61
2022/05/03 05:30:35;;;;;;;12.50;10.05;;;;;;;13.23;67.48;100489.47;4115465;28;20282;-61
2022/05/03 05:32:39;;;;;;;14.93;10.82;;;;;;;13.32;66.21;100482.56;4115539;28;20050;-61
2022/05/03 05:34:42;;;;;;;13.45;10.55;;;;;;;13.36;66.74;100481.69;4115425;28;20046;-61
2022/05/03 05:36:45;;;;;;;17.42;11.57;;;;;;;13.45;66.67;100481.75;4114317;28;20046;-61
2022/05/03 05:38:47;;;;;;;18.30;12.18;;;;;;;13.53;65.02;100473.91;4115449;28;20082;-61
2022/05/03 05:40:52;;;;;;;15.30;11.25;;;;;;;13.60;64.84;100473.94;4113774;28;20046;-61
2022/05/03 05:42:55;;;;;;;13.15;10.90;;;;;;;13.69;64.63;100478.28;4115412;28;20054;-61
2022/05/03 05:44:58;;;;;;;17.15;10.95;;;;;;;13.78;64.31;100485.28;4113494;28;20046;-61
2022/05/03 05:47:01;;;;;;;19.75;11.20;;;;;;;13.85;63.75;100480.94;4129407;28;20043;-61
2022/05/03 05:49:06;;;;;;;18.23;12.30;;;;;;;13.96;63.78;100485.31;4114358;28;20039;-61
2022/05/03 05:51:09;;;;;;;18.33;11.50;;;;;;;13.95;63.56;100477.47;4114711;28;20446;-61
2022/05/03 05:55:32;;;;;;;15.48;10.52;;;;;;;13.96;66.06;100490.53;4114725;28;20089;-61
2022/05/03 05:57:35;;;;;;;13.73;10.30;;;;;;;14.01;66.54;100493.16;4113584;28;20195;-61
2022/05/03 05:59:38;;;;;;;15.02;11.82;;;;;;;14.11;65.70;100494.03;4114186;28;20787;-61
2022/05/03 06:01:42;;;;;;;21.48;11.85;;;;;;;14.19;63.15;100487.03;4114606;28;20401;-61
2022/05/03 06:03:45;;;;;;;17.52;13.18;;;;;;;14.13;62.12;100494.88;4114477;28;20038;-61
2022/05/03 06:05:49;;;;;;;15.88;11.85;;;;;;;14.16;61.79;100494.88;4115148;28;20047;-61
2022/05/03 06:07:53;;;;;;;;;;;;;;;14.03;61.99;100494.03;4113927;28;20105;-61
2022/05/03 06:09:56;;;;;;;37.85;15.27;;;;;;;14.14;61.74;100499.25;4112808;28;19921;-61
2022/05/03 06:11:58;;;;;;;18.65;13.38;;;;;;;14.21;61.03;100495.78;4112810;28;20039;-61
2022/05/03 06:14:01;;;;;;;23.20;13.45;;;;;;;14.25;60.91;100497.53;4115330;28;20043;-61
2022/05/03 06:16:08;;;;;;;19.02;12.65;;;;;;;14.27;60.22;100495.75;4116258;28;20046;-61
2022/05/03 06:18:13;;;;;;;18.40;12.60;;;;;;;14.25;61.00;100492.28;4117349;28;20461;-61
2022/05/03 06:20:15;;;;;;;21.50;13.88;;;;;;;14.42;60.18;100488.78;4115537;28;20039;-61
2022/05/03 06:22:20;;;;;;;21.35;13.30;;;;;;;14.40;60.69;100499.25;4117173;28;20101;-61
2022/05/03 06:24:23;;;;;;;;;;;;;;;14.21;60.26;100503.63;4111072;28;20093;-61
2022/05/03 06:26:26;;;;;;;18.48;13.05;;;;;;;14.31;61.18;100501.88;4117336;28;19922;-61
2022/05/03 06:28:29;;;;;;;20.65;13.23;;;;;;;14.36;60.58;100501.88;4117355;28;20078;-61
2022/05/03 06:30:32;;;;;;;17.60;12.40;;;;;;;14.47;60.99;100503.59;4117716;28;20080;-61
2022/05/03 06:32:35;;;;;;;21.65;13.43;;;;;;;14.49;59.76;100500.97;4117272;28;20123;-61
2022/05/03 06:34:38;;;;;;;19.73;12.43;;;;;;;14.44;60.42;100503.63;4116999;28;20526;-61
2022/05/03 06:36:41;;;;;;;23.33;13.55;;;;;;;14.44;59.96;100502.72;4117651;28;20490;-61
2022/05/03 06:38:45;;;;;;;30.77;13.07;;;;;;;14.46;60.37;100507.09;4116503;28;20418;-61
2022/05/03 06:40:48;;;;;;;22.35;12.43;;;;;;;14.49;60.57;100511.44;4116009;28;20557;-61
2022/05/03 06:42:51;;;;;;;24.48;12.95;;;;;;;14.57;59.60;100504.47;4115567;28;20054;-61
2022/05/03 06:44:54;;;;;;;26.70;13.05;;;;;;;14.46;59.36;100508.84;4116810;28;20432;-61
2022/05/03 06:46:57;;;;;;;21.48;12.05;;;;;;;14.44;59.66;100508.84;4114510;28;20039;-61
2022/05/03 06:49:00;;;;;;;15.98;12.32;;;;;;;14.44;60.28;100510.56;4117608;28;20129;-61
2022/05/03 06:51:03;;;;;;;25.08;13.55;;;;;;;14.49;60.11;100500.97;4116435;28;20042;-61
2022/05/03 06:53:06;;;;;;;30.75;12.70;;;;;;;14.52;60.51;100503.59;4117108;28;20117;-61
2022/05/03 06:55:11;;;;;;;14.82;10.82;;;;;;;14.53;60.31;100502.72;4116990;28;20046;-61
2022/05/03 06:57:14;;;;;;;22.50;14.02;;;;;;;14.55;60.38;100510.56;4130794;28;20054;-61
2022/05/03 06:59:17;;;;;;;23.63;14.30;;;;;;;14.63;59.28;100508.81;4116920;28;20070;-61
2022/05/03 07:01:20;;;;;;;19.85;14.13;;;;;;;14.56;59.53;100512.28;4113536;28;20071;-61
2022/05/03 07:03:23;;;;;;;25.42;14.52;;;;;;;14.56;59.96;100513.19;4116594;28;20076;-61
2022/05/03 07:05:26;;;;;;;21.25;13.13;;;;;;;14.56;59.69;100523.66;4116594;28;20047;-61
2022/05/03 07:07:29;;;;;;;20.02;13.32;;;;;;;14.67;60.40;100515.81;4116561;28;20049;-61
2022/05/03 07:09:32;;;;;;;18.13;13.38;;;;;;;14.63;60.38;100520.19;4114522;28;20043;-61
2022/05/03 07:11:37;;;;;;;20.40;13.77;;;;;;;14.79;59.81;100523.66;4116270;28;20047;-61
2022/05/03 07:13:39;;;;;;;18.95;13.45;;;;;;;14.71;59.07;100520.16;4130573;28;20046;-61
2022/05/03 07:15:43;;;;;;;21.73;14.10;;;;;;;14.84;59.72;100524.50;4115561;28;20130;-61
2022/05/03 07:22:46;;;;;;;17.88;13.82;;;;;;;14.64;60.44;100532.38;4111195;28;20087;-61
2022/05/03 07:24:49;;;;;;;20.58;13.52;;;;;;;14.66;59.56;100528.03;4111281;28;20046;-61
2022/05/03 07:26:53;;;;;;;23.05;14.63;;;;;;;14.66;59.48;100535.88;4131314;28;20041;-61
2022/05/03 07:28:56;;;;;;;22.85;14.00;;;;;;;14.61;60.15;100532.38;4116371;28;20499;-61
2022/05/03 07:30:59;;;;;;;19.50;13.32;;;;;;;14.57;60.56;100535.88;4116189;28;20047;-61
2022/05/03 07:33:02;;;;;;;20.52;14.10;;;;;;;14.63;60.33;100535.88;4116448;28;20070;-61
2022/05/03 07:35:05;;;;;;;17.30;14.00;;;;;;;14.58;60.46;100537.59;4131101;28;20042;-61
2022/05/03 07:37:09;;;;;;;28.08;13.82;;;;;;;14.62;60.04;100539.38;4116309;28;20042;-61
2022/05/03 07:39:11;;;;;;;21.38;14.18;;;;;;;14.62;60.04;100541.97;4116293;28;20406;-61
2022/05/03 07:41:15;;;;;;;19.85;12.82;;;;;;;14.70;60.15;100535.88;4114767;28;20502;-61
2022/05/03 07:43:19;;;;;;;19.33;13.80;;;;;;;14.79;59.32;100535.84;4116087;28;20046;-61
2022/05/03 07:45:22;;;;;;;20.33;14.57;;;;;;;14.80;59.46;100538.44;4113674;28;20498;-61
2022/05/03 07:47:24;;;;;;;21.08;14.90;;;;;;;14.98;59.96;100537.56;4115865;28;20490;-61
2022/05/03 07:49:27;;;;;;;23.83;14.55;;;;;;;14.90;59.75;100534.09;4116868;28;20494;-61
2022/05/03 07:51:30;;;;;;;19.15;12.65;;;;;;;14.89;59.68;100540.19;4115752;28;20109;-61
2022/05/03 07:53:35;;;;;;;20.05;14.90;;;;;;;15.09;60.15;100539.28;4115022;28;20573;-61
2022/05/03 07:55:38;;;;;;;21.00;13.95;;;;;;;15.21;59.71;100539.22;4115515;28;20383;-61
2022/05/03 07:57:41;;;;;;;23.48;14.75;;;;;;;15.33;59.10;100543.53;4113976;28;20062;-61
2022/05/03 07:59:45;;;;;;;21.00;14.85;;;;;;;15.38;58.80;100543.53;4115871;28;20129;-61
2022/05/03 08:01:48;;;;;;;;;;;;;;;15.52;58.26;100545.22;4116271;28;20037;-61
2022/05/03 08:03:51;;;;;;;22.33;14.95;;;;;;;15.51;58.48;100545.22;4115953;28;19962;-61
2022/05/03 08:05:54;;;;;;;23.50;15.23;;;;;;;15.64;58.94;100546.03;4115707;28;20126;-61
2022/05/03 08:07:57;;;;;;;22.70;15.55;;;;;;;15.64;58.61;100552.16;4115079;28;20034;-61
2022/05/03 08:09:59;;;;;;;22.52;15.25;;;;;;;15.79;57.85;100552.97;4114707;28;20395;-61
2022/05/03 08:12:03;;;;;;;23.67;15.38;;;;;;;15.73;58.50;100550.38;4115909;28;20031;-61
2022/05/03 08:14:06;;;;;;;17.77;13.90;;;;;;;15.74;57.70;100549.47;4113653;28;20057;-61
2022/05/03 08:16:18;;;;;;;19.20;13.48;;;;;;;15.77;57.72;100544.19;4114442;28;20041;-61
2022/05/03 08:18:21;;;;;;;21.10;12.95;;;;;;;15.78;57.65;100545.94;4109356;28;20494;-61
2022/05/03 08:20:24;;;;;;;18.83;12.95;;;;;;;15.76;58.77;100548.56;4098011;28;20055;-61
2022/05/03 08:22:34;;;;;;;15.43;11.45;;;;;;;15.82;58.76;100538.09;4115401;28;20621;-61
2022/05/03 08:24:37;;;;;;;20.77;14.25;;;;;;;16.05;56.73;100544.94;4116203;28;20125;-61
2022/05/03 08:26:40;;;;;;;25.27;14.25;;;;;;;16.09;57.54;100545.78;4114171;28;20126;-61
2022/05/03 08:28:44;;;;;;;21.65;12.57;;;;;;;16.02;57.65;100553.69;4116224;28;20126;-61
2022/05/03 08:30:46;;;;;;;17.27;12.13;;;;;;;16.14;57.62;100547.50;4113973;28;20045;-61
2022/05/03 08:32:51;;;;;;;18.33;11.55;;;;;;;16.28;58.30;100549.13;4111528;28;20038;-61
2022/05/03 08:34:53;;;;;;;22.45;13.70;;;;;;;16.52;57.08;100555.94;4115338;28;20041;-61
2022/05/03 08:44:00;;;;;;;22.55;15.88;;;;;;;16.90;56.53;100552.13;4111174;28;20089;-61
2022/05/03 08:46:06;;;;;;;22.23;15.95;;;;;;;17.05;55.62;100557.19;4113871;28;20039;-61
2022/05/03 08:48:11;;;;;;;21.30;15.65;;;;;;;17.10;55.27;100555.38;4115199;28;20039;-61
2022/05/03 08:50:16;;;;;;;25.50;15.95;;;;;;;17.05;55.60;100546.66;4115316;28;20035;-61
2022/05/03 08:52:22;;;;;;;23.77;15.57;;;;;;;17.01;55.95;100555.50;4110532;28;20458;-61
2022/05/03 08:54:25;;;;;;;20.45;14.02;;;;;;;17.00;56.60;100552.91;4130736;28;20054;-61
2022/05/03 08:56:30;;;;;;;16.95;12.93;;;;;;;17.03;56.23;100555.47;4114667;28;20043;-61
2022/05/03 08:58:33;;;;;;;28.38;17.05;;;;;;;17.28;54.86;100558.69;4116315;28;20043;-61
2022/05/03 09:00:37;;;;;;;20.40;15.18;;;;;;;17.10;55.62;100560.63;4114715;28;20051;-61
2022/05/03 09:02:44;;;;;;;17.23;12.73;;;;;;;17.12;55.71;100559.75;4114912;28;20046;-61
2022/05/03 09:04:50;;;;;;;17.33;13.63;;;;;;;17.07;55.98;100555.44;4115671;28;20039;-61
2022/05/03 09:06:53;;;;;;;16.10;11.88;;;;;;;17.08;56.05;100561.53;4113556;28;20289;-61
2022/05/03 09:08:56;;;;;;;18.77;12.95;;;;;;;17.13;56.37;100562.38;4113897;28;20051;-61
2022/05/03 09:11:00;;;;;;;14.05;12.25;;;;;;;17.25;55.59;100558.72;4111406;28;20046;-61
2022/05/03 09:13:18;;;;;;;17.73;14.27;;;;;;;17.29;55.12;100560.44;4114229;28;20596;-61
2022/05/03 09:15:30;;;;;;;14.25;11.60;;;;;;;17.25;55.46;100558.72;4114805;28;20041;-61
2022/05/03 09:17:38;;;;;;;16.10;14.40;;;;;;;17.43;54.96;100561.16;4114909;28;20062;-61
2022/05/03 09:19:41;;;;;;;16.25;13.48;;;;;;;17.66;54.53;100559.09;4113480;28;20041;-61
2022/05/03 09:24:09;;;;;;;;;;;;;;;18.01;53.42;100550.72;4115776;28;20043;-62
2022/05/03 09:26:14;;;;;;;19.02;13.15;;;;;;;17.95;52.74;100558.72;4114107;28;19993;-61
2022/05/03 09:28:16;;;;;;;15.63;11.95;;;;;;;17.74;54.04;100563.38;4114684;28;20089;-61
2022/05/03 09:30:20;;;;;;;16.48;13.57;;;;;;;17.82;53.31;100562.38;4114314;28;20039;-62
2022/05/03 09:32:37;;;;;;;23.35;12.93;;;;;;;17.78;53.27;100557.19;4114438;28;20039;-61
2022/05/03 09:34:41;;;;;;;17.02;14.38;;;;;;;17.73;53.15;100553.72;4114737;28;20050;-61
2022/05/03 09:36:46;;;;;;;20.27;14.95;;;;;;;17.78;53.21;100559.81;4114598;28;20122;-61
2022/05/03 09:39:06;;;;;;;15.93;12.00;;;;;;;17.64;54.11;100556.50;4114644;28;20043;-61
2022/05/03 09:41:14;;;;;;;21.90;14.68;;;;;;;17.80;52.70;100558.00;4113716;28;20491;-61
2022/05/03 09:43:17;;;;;;;19.30;13.90;;;;;;;17.99;52.07;100552.53;4114392;28;20057;-61
2022/05/03 09:45:22;;;;;;;13.57;10.50;;;;;;;17.94;53.03;100565.72;4097209;28;20118;-61
2022/05/03 09:47:27;;;;;;;16.70;13.05;;;;;;;18.19;51.83;100559.22;4114452;28;20039;-61
2022/05/03 09:49:35;;;;;;;13.55;11.35;;;;;;;18.14;52.81;100560.16;4118212;28;20101;-61
2022/05/03 09:51:38;;;;;;;15.98;13.48;;;;;;;18.27;52.19;100550.31;4118429;28;20045;-61
2022/05/03 09:53:42;;;;;;;17.90;13.48;;;;;;;18.43;51.48;100553.56;4116761;28;20042;-61
2022/05/03 09:55:48;;;;;;;15.40;13.02;;;;;;;18.82;50.78;100550.25;4114075;28;20049;-61
2022/05/03 09:57:51;;;;;;;14.40;10.68;;;;;;;18.62;51.39;100554.13;4117788;28;20090;-61
2022/05/03 09:59:56;;;;;;;16.08;10.35;;;;;;;18.68;51.23;100545.25;4116207;28;20107;-62
2022/05/03 10:01:59;;;;;;;18.98;12.57;;;;;;;19.00;50.33;100543.81;4117746;28;20042;-62
2022/05/03 10:04:02;;;;;;;13.18;11.77;;;;;;;19.21;49.67;100533.75;4118389;28;20042;-62
2022/05/03 10:06:05;;;;;;;13.90;11.32;;;;;;;19.18;49.29;100543.44;4118366;28;20061;-61